createdAt,value
2018-09-23T00:00:44.401Z,47.70
2018-09-23T00:01:48.856Z,47.80
2018-09-23T00:02:53.262Z,47.70
2018-09-23T00:03:57.858Z,47.70
2018-09-23T00:05:02.393Z,47.70
2018-09-23T00:06:06.856Z,47.80
2018-09-23T00:07:11.222Z,47.70
2018-09-23T00:08:15.618Z,47.80
2018-09-23T00:09:20.120Z,47.80
2018-09-23T00:10:24.672Z,47.70
2018-09-23T00:11:29.205Z,48.50
2018-09-23T00:12:33.695Z,47.80
2018-09-23T00:13:37.992Z,47.80
2018-09-23T00:14:42.486Z,47.70
2018-09-23T00:15:46.963Z,47.70
2018-09-23T00:16:51.458Z,47.80
2018-09-23T00:17:55.898Z,47.70
2018-09-23T00:19:00.398Z,47.70
2018-09-23T00:20:04.828Z,48.40
2018-09-23T00:21:09.113Z,47.70
2018-09-23T00:22:13.675Z,47.70
2018-09-23T00:23:18.154Z,47.70
2018-09-23T00:24:22.485Z,47.70
2018-09-23T00:25:26.822Z,47.80
2018-09-23T00:26:31.439Z,47.70
2018-09-23T00:27:35.736Z,47.70
2018-09-23T00:28:40.187Z,47.70
2018-09-23T00:29:44.511Z,47.70
2018-09-23T00:30:49.027Z,47.80
2018-09-23T00:31:53.498Z,47.70
2018-09-23T00:32:57.846Z,47.70
2018-09-23T00:34:02.412Z,47.80
2018-09-23T00:35:06.833Z,47.80
2018-09-23T00:36:11.379Z,47.80
2018-09-23T00:37:15.908Z,47.70
2018-09-23T00:38:20.331Z,47.80
2018-09-23T00:39:24.614Z,47.80
2018-09-23T00:40:29.039Z,47.80
2018-09-23T00:41:33.528Z,47.80
2018-09-23T00:42:39.012Z,47.80
2018-09-23T00:43:43.290Z,47.80
2018-09-23T00:44:47.768Z,47.80
2018-09-23T00:45:52.261Z,47.80
2018-09-23T00:46:56.722Z,47.80
2018-09-23T00:48:01.151Z,47.80
2018-09-23T00:49:05.748Z,47.80
2018-09-23T00:50:10.256Z,48.50
2018-09-23T00:51:14.827Z,47.80
2018-09-23T00:52:19.355Z,47.80
2018-09-23T00:53:23.873Z,47.80
2018-09-23T00:54:28.484Z,47.80
2018-09-23T00:55:32.961Z,47.80
2018-09-23T00:56:37.533Z,47.80
2018-09-23T00:57:41.960Z,47.90
2018-09-23T00:58:46.582Z,47.80
2018-09-23T00:59:51.364Z,47.80
2018-09-23T01:00:55.921Z,47.90
2018-09-23T01:02:00.500Z,47.80
2018-09-23T01:03:05.069Z,47.80
2018-09-23T01:04:09.668Z,47.80
2018-09-23T01:05:14.137Z,47.70
2018-09-23T01:06:18.726Z,47.90
2018-09-23T01:07:23.190Z,47.80
2018-09-23T01:08:27.699Z,47.80
2018-09-23T01:09:32.305Z,47.70
2018-09-23T01:10:36.818Z,47.80
2018-09-23T01:11:41.302Z,47.80
2018-09-23T01:12:45.929Z,47.80
2018-09-23T01:13:50.509Z,47.80
2018-09-23T01:14:54.977Z,47.80
2018-09-23T01:15:59.632Z,47.80
2018-09-23T01:17:03.944Z,47.80
2018-09-23T01:18:08.580Z,47.80
2018-09-23T01:19:13.252Z,47.80
2018-09-23T01:20:17.921Z,47.80
2018-09-23T01:21:22.322Z,47.90
2018-09-23T01:22:26.937Z,47.80
2018-09-23T01:23:31.496Z,47.80
2018-09-23T01:24:36.081Z,47.80
2018-09-23T01:25:40.566Z,47.80
2018-09-23T01:26:45.022Z,47.80
2018-09-23T01:27:49.575Z,47.80
2018-09-23T01:28:54.088Z,47.80
2018-09-23T01:29:58.598Z,47.80
2018-09-23T01:31:02.966Z,47.80
2018-09-23T01:32:07.497Z,47.80
2018-09-23T01:33:12.019Z,47.80
2018-09-23T01:34:16.610Z,47.80
2018-09-23T01:35:21.032Z,47.80
2018-09-23T01:36:25.514Z,47.80
2018-09-23T01:37:30.055Z,47.90
2018-09-23T01:38:34.567Z,47.80
2018-09-23T01:39:39.169Z,48.40
2018-09-23T01:40:43.618Z,47.80
2018-09-23T01:41:48.191Z,47.80
2018-09-23T01:42:52.799Z,47.80
2018-09-23T01:43:57.428Z,47.80
2018-09-23T01:45:01.962Z,47.80
2018-09-23T01:46:06.609Z,47.80
2018-09-23T01:47:11.303Z,47.80
2018-09-23T01:48:15.855Z,47.80
2018-09-23T01:49:20.359Z,47.80
2018-09-23T01:50:24.918Z,47.80
2018-09-23T01:51:29.433Z,47.80
2018-09-23T01:52:33.937Z,47.90
2018-09-23T01:53:38.274Z,47.80
2018-09-23T01:54:42.724Z,47.80
2018-09-23T01:55:47.303Z,47.80
2018-09-23T01:56:51.985Z,47.80
2018-09-23T01:57:56.499Z,47.80
2018-09-23T01:59:01.028Z,47.80
2018-09-23T02:00:05.527Z,47.80
2018-09-23T02:01:10.074Z,47.80
2018-09-23T02:02:14.562Z,47.80
2018-09-23T02:03:19.003Z,47.90
2018-09-23T02:04:23.868Z,47.80
2018-09-23T02:05:28.230Z,47.80
2018-09-23T02:06:32.696Z,47.80
2018-09-23T02:07:37.192Z,47.80
2018-09-23T02:08:41.678Z,47.80
2018-09-23T02:09:46.131Z,47.90
2018-09-23T02:10:50.602Z,47.80
2018-09-23T02:11:55.289Z,47.80
2018-09-23T02:12:59.802Z,47.90
2018-09-23T02:14:04.088Z,47.90
2018-09-23T02:15:08.650Z,47.80
2018-09-23T02:16:13.121Z,47.90
2018-09-23T02:17:17.663Z,47.90
2018-09-23T02:18:22.065Z,47.80
2018-09-23T02:19:26.589Z,47.90
2018-09-23T02:20:31.066Z,47.90
2018-09-23T02:21:35.442Z,47.90
2018-09-23T02:22:39.996Z,47.80
2018-09-23T02:23:44.545Z,47.90
2018-09-23T02:24:49.005Z,47.80
2018-09-23T02:25:53.702Z,47.90
2018-09-23T02:26:58.324Z,47.90
2018-09-23T02:28:02.926Z,47.90
2018-09-23T02:29:07.481Z,47.90
2018-09-23T02:30:12.024Z,47.80
2018-09-23T02:31:16.510Z,47.80
2018-09-23T02:32:21.000Z,47.90
2018-09-23T02:33:25.535Z,47.80
2018-09-23T02:34:29.975Z,47.90
2018-09-23T02:35:34.368Z,47.80
2018-09-23T02:36:38.847Z,47.80
2018-09-23T02:37:43.433Z,47.80
2018-09-23T02:38:47.928Z,47.80
2018-09-23T02:39:52.477Z,47.80
2018-09-23T02:40:57.020Z,47.80
2018-09-23T02:42:01.494Z,47.80
2018-09-23T02:43:05.926Z,47.80
2018-09-23T02:44:10.336Z,47.80
2018-09-23T02:45:14.688Z,47.80
2018-09-23T02:46:19.172Z,47.80
2018-09-23T02:47:23.451Z,47.80
2018-09-23T02:48:27.871Z,47.80
2018-09-23T02:49:32.271Z,47.80
2018-09-23T02:50:36.587Z,47.80
2018-09-23T02:51:41.100Z,47.80
2018-09-23T02:52:45.603Z,47.80
2018-09-23T02:53:49.947Z,47.80
2018-09-23T02:54:54.331Z,47.80
2018-09-23T02:55:58.643Z,47.80
2018-09-23T02:57:03.193Z,47.80
2018-09-23T02:58:07.672Z,47.80
2018-09-23T02:59:12.052Z,47.80
2018-09-23T03:00:16.548Z,48.50
2018-09-23T03:01:21.029Z,47.80
2018-09-23T03:02:25.467Z,47.90
2018-09-23T03:03:29.949Z,47.90
2018-09-23T03:04:34.438Z,47.90
2018-09-23T03:05:38.710Z,47.90
2018-09-23T03:06:43.049Z,47.90
2018-09-23T03:07:47.481Z,47.90
2018-09-23T03:08:52.044Z,47.90
2018-09-23T03:09:56.862Z,47.90
2018-09-23T03:11:01.428Z,47.90
2018-09-23T03:12:05.859Z,47.90
2018-09-23T03:13:10.209Z,47.80
2018-09-23T03:14:14.664Z,47.90
2018-09-23T03:15:19.058Z,47.80
2018-09-23T03:16:23.710Z,47.90
2018-09-23T03:17:28.298Z,47.90
2018-09-23T03:18:32.776Z,47.90
2018-09-23T03:19:37.199Z,47.90
2018-09-23T03:20:41.749Z,47.80
2018-09-23T03:21:46.270Z,47.90
2018-09-23T03:22:50.809Z,47.80
2018-09-23T03:23:55.359Z,47.90
2018-09-23T03:24:59.873Z,47.80
2018-09-23T03:26:04.443Z,47.80
2018-09-23T03:27:08.978Z,47.80
2018-09-23T03:28:13.470Z,47.80
2018-09-23T03:29:17.941Z,47.90
2018-09-23T03:30:22.323Z,47.80
2018-09-23T03:31:26.859Z,47.80
2018-09-23T03:32:31.360Z,47.80
2018-09-23T03:33:35.917Z,47.80
2018-09-23T03:34:40.416Z,47.80
2018-09-23T03:35:44.722Z,47.80
2018-09-23T03:36:49.216Z,47.80
2018-09-23T03:37:53.527Z,47.80
2018-09-23T03:38:58.620Z,47.90
2018-09-23T03:40:03.177Z,47.90
2018-09-23T03:41:07.557Z,47.80
2018-09-23T03:42:12.059Z,47.80
2018-09-23T03:43:16.517Z,47.80
2018-09-23T03:44:20.888Z,47.80
2018-09-23T03:45:25.421Z,47.80
2018-09-23T03:46:29.744Z,47.80
2018-09-23T03:47:34.161Z,47.80
2018-09-23T03:48:38.458Z,47.80
2018-09-23T03:49:42.741Z,47.80
2018-09-23T03:50:47.216Z,47.80
2018-09-23T03:51:51.465Z,47.80
2018-09-23T03:52:55.745Z,47.80
2018-09-23T03:54:00.162Z,47.90
2018-09-23T03:55:04.683Z,47.80
2018-09-23T03:56:09.118Z,47.80
2018-09-23T03:57:13.517Z,47.80
2018-09-23T03:58:18.059Z,47.80
2018-09-23T03:59:22.406Z,47.90
2018-09-23T04:00:26.969Z,47.90
2018-09-23T04:01:31.409Z,47.80
2018-09-23T04:02:35.955Z,47.90
2018-09-23T04:03:40.457Z,47.80
2018-09-23T04:04:44.784Z,47.90
2018-09-23T04:05:49.351Z,47.90
2018-09-23T04:06:53.772Z,48.10
2018-09-23T04:07:58.159Z,47.90
2018-09-23T04:09:02.659Z,47.90
2018-09-23T04:10:07.254Z,47.90
2018-09-23T04:11:11.818Z,47.90
2018-09-23T04:12:16.308Z,47.90
2018-09-23T04:13:20.742Z,47.90
2018-09-23T04:14:25.337Z,47.90
2018-09-23T04:15:29.647Z,47.90
2018-09-23T04:16:34.013Z,47.90
2018-09-23T04:17:38.557Z,47.90
2018-09-23T04:18:43.114Z,47.90
2018-09-23T04:19:47.508Z,47.90
2018-09-23T04:20:52.020Z,47.80
2018-09-23T04:21:56.644Z,47.90
2018-09-23T04:23:01.220Z,47.90
2018-09-23T04:24:05.847Z,47.90
2018-09-23T04:25:10.409Z,47.90
2018-09-23T04:26:14.949Z,47.90
2018-09-23T04:27:19.434Z,47.90
2018-09-23T04:28:23.910Z,48.60
2018-09-23T04:29:28.419Z,48.00
2018-09-23T04:30:32.971Z,47.90
2018-09-23T04:31:37.349Z,47.90
2018-09-23T04:32:41.912Z,48.60
2018-09-23T04:33:46.225Z,47.80
2018-09-23T04:34:53.546Z,47.90
2018-09-23T04:35:57.941Z,47.80
2018-09-23T04:37:02.459Z,47.90
2018-09-23T04:38:06.804Z,47.90
2018-09-23T04:39:11.193Z,47.90
2018-09-23T04:40:15.530Z,47.90
2018-09-23T04:41:19.938Z,47.90
2018-09-23T04:42:24.502Z,47.90
2018-09-23T04:43:28.975Z,48.50
2018-09-23T04:44:33.392Z,47.90
2018-09-23T04:45:37.873Z,47.90
2018-09-23T04:46:42.493Z,47.90
2018-09-23T04:47:46.901Z,47.90
2018-09-23T04:48:51.215Z,48.00
2018-09-23T04:49:55.717Z,48.00
2018-09-23T04:51:00.078Z,48.00
2018-09-23T04:52:04.366Z,48.00
2018-09-23T04:53:08.868Z,48.00
2018-09-23T04:54:13.187Z,48.10
2018-09-23T04:55:17.820Z,48.10
2018-09-23T04:56:22.153Z,48.10
2018-09-23T04:57:26.503Z,48.20
2018-09-23T04:58:30.873Z,48.10
2018-09-23T04:59:35.372Z,48.20
2018-09-23T05:00:39.748Z,48.30
2018-09-23T05:01:44.295Z,48.30
2018-09-23T05:02:48.828Z,48.30
2018-09-23T05:03:53.094Z,48.20
2018-09-23T05:04:57.500Z,48.30
2018-09-23T05:06:01.999Z,48.30
2018-09-23T05:07:06.677Z,48.40
2018-09-23T05:08:11.294Z,48.50
2018-09-23T05:09:15.866Z,48.50
2018-09-23T05:10:20.244Z,48.50
2018-09-23T05:11:24.885Z,48.50
2018-09-23T05:12:29.586Z,48.60
2018-09-23T05:13:34.177Z,48.50
2018-09-23T05:14:38.652Z,48.50
2018-09-23T05:15:43.173Z,48.60
2018-09-23T05:16:47.535Z,48.50
2018-09-23T05:17:52.037Z,48.50
2018-09-23T05:18:56.504Z,48.50
2018-09-23T05:20:00.886Z,48.50
2018-09-23T05:21:05.434Z,48.50
2018-09-23T05:22:09.831Z,48.50
2018-09-23T05:23:14.120Z,48.50
2018-09-23T05:24:18.521Z,48.50
2018-09-23T05:25:22.987Z,48.50
2018-09-23T05:26:27.352Z,49.20
2018-09-23T05:27:31.656Z,48.50
2018-09-23T05:28:36.110Z,48.50
2018-09-23T05:29:40.469Z,48.50
2018-09-23T05:30:44.909Z,48.60
2018-09-23T05:31:49.481Z,48.50
2018-09-23T05:32:54.092Z,48.50
2018-09-23T05:33:58.532Z,48.40
2018-09-23T05:35:03.047Z,48.60
2018-09-23T05:36:07.405Z,48.50
2018-09-23T05:37:12.090Z,48.50
2018-09-23T05:38:16.568Z,48.60
2018-09-23T05:39:20.923Z,49.10
2018-09-23T05:40:25.342Z,48.50
2018-09-23T05:41:29.858Z,49.10
2018-09-23T05:42:34.236Z,48.50
2018-09-23T05:43:38.723Z,48.50
2018-09-23T05:44:43.190Z,48.60
2018-09-23T05:45:47.469Z,48.90
2018-09-23T05:46:51.907Z,49.20
2018-09-23T05:47:56.227Z,49.30
2018-09-23T05:49:00.805Z,49.20
2018-09-23T05:50:05.301Z,49.60
2018-09-23T05:51:09.840Z,50.00
2018-09-23T05:52:14.410Z,50.10
2018-09-23T05:53:18.864Z,50.20
2018-09-23T05:54:23.377Z,50.30
2018-09-23T05:55:27.890Z,50.20
2018-09-23T05:56:32.404Z,50.30
2018-09-23T05:57:36.923Z,50.40
2018-09-23T05:58:41.366Z,50.50
2018-09-23T05:59:45.893Z,50.70
2018-09-23T06:00:50.387Z,50.70
2018-09-23T06:01:55.021Z,50.90
2018-09-23T06:02:59.455Z,50.80
2018-09-23T06:04:04.009Z,51.60
2018-09-23T06:05:08.609Z,51.10
2018-09-23T06:06:13.172Z,51.10
2018-09-23T06:07:17.640Z,51.00
2018-09-23T06:08:22.253Z,51.00
2018-09-23T06:09:26.871Z,51.10
2018-09-23T06:10:31.346Z,51.10
2018-09-23T06:11:35.881Z,50.80
2018-09-23T06:12:40.439Z,50.30
2018-09-23T06:13:44.932Z,50.50
2018-09-23T06:14:49.522Z,50.80
2018-09-23T06:15:54.061Z,50.40
2018-09-23T06:16:58.456Z,50.20
2018-09-23T06:18:02.817Z,50.10
2018-09-23T06:19:07.348Z,50.30
2018-09-23T06:20:11.915Z,50.00
2018-09-23T06:21:16.213Z,50.10
2018-09-23T06:22:20.656Z,50.20
2018-09-23T06:23:25.007Z,50.20
2018-09-23T06:24:29.656Z,50.10
2018-09-23T06:25:34.135Z,50.00
2018-09-23T06:26:38.820Z,50.00
2018-09-23T06:27:43.317Z,50.00
2018-09-23T06:28:47.818Z,50.00
2018-09-23T06:29:52.278Z,49.90
2018-09-23T06:30:56.779Z,49.90
2018-09-23T06:32:01.144Z,49.80
2018-09-23T06:33:05.592Z,49.80
2018-09-23T06:34:10.118Z,49.70
2018-09-23T06:35:14.571Z,50.30
2018-09-23T06:36:19.082Z,49.60
2018-09-23T06:37:23.639Z,49.60
2018-09-23T06:38:28.161Z,50.10
2018-09-23T06:39:32.485Z,50.00
2018-09-23T06:40:36.984Z,49.30
2018-09-23T06:41:41.521Z,49.30
2018-09-23T06:42:45.819Z,49.20
2018-09-23T06:43:50.298Z,49.20
2018-09-23T06:44:54.790Z,49.10
2018-09-23T06:45:59.179Z,49.00
2018-09-23T06:47:03.563Z,49.00
2018-09-23T06:48:07.994Z,49.00
2018-09-23T06:49:12.771Z,49.00
2018-09-23T06:50:17.272Z,49.10
2018-09-23T06:51:21.713Z,49.00
2018-09-23T06:52:26.119Z,49.00
2018-09-23T06:53:30.443Z,49.10
2018-09-23T06:54:34.900Z,49.00
2018-09-23T06:55:39.302Z,49.10
2018-09-23T06:56:43.682Z,49.10
2018-09-23T06:57:48.228Z,48.90
2018-09-23T06:58:52.683Z,49.00
2018-09-23T06:59:57.225Z,49.00
2018-09-23T07:01:01.740Z,48.80
2018-09-23T07:02:06.303Z,49.00
2018-09-23T07:03:10.910Z,49.00
2018-09-23T07:04:15.519Z,49.00
2018-09-23T07:05:20.064Z,48.90
2018-09-23T07:06:24.598Z,48.80
2018-09-23T07:07:29.359Z,48.80
2018-09-23T07:08:33.796Z,48.90
2018-09-23T07:09:38.331Z,48.80
2018-09-23T07:10:42.858Z,48.90
2018-09-23T07:11:47.277Z,48.90
2018-09-23T07:12:52.040Z,48.90
2018-09-23T07:13:56.752Z,48.80
2018-09-23T07:15:01.453Z,48.90
2018-09-23T07:16:06.020Z,49.20
2018-09-23T07:17:10.704Z,49.10
2018-09-23T07:18:15.207Z,48.90
2018-09-23T07:19:19.756Z,49.60
2018-09-23T07:20:24.196Z,48.90
2018-09-23T07:21:28.776Z,48.90
2018-09-23T07:22:33.383Z,48.80
2018-09-23T07:23:38.538Z,49.20
2018-09-23T07:24:43.062Z,48.90
2018-09-23T07:25:47.817Z,49.20
2018-09-23T07:26:52.597Z,49.00
2018-09-23T07:27:57.203Z,49.30
2018-09-23T07:29:01.906Z,49.60
2018-09-23T07:30:06.607Z,49.80
2018-09-23T07:31:11.182Z,50.20
2018-09-23T07:32:15.635Z,50.30
2018-09-23T07:33:20.347Z,50.20
2018-09-23T07:34:24.903Z,50.20
2018-09-23T07:35:29.585Z,50.10
2018-09-23T07:36:34.513Z,49.90
2018-09-23T07:37:39.159Z,50.20
2018-09-23T07:38:43.792Z,49.10
2018-09-23T07:39:48.271Z,48.10
2018-09-23T07:40:52.754Z,47.20
2018-09-23T07:41:57.242Z,47.00
2018-09-23T07:43:01.656Z,47.00
2018-09-23T07:44:06.216Z,47.00
2018-09-23T07:45:10.778Z,47.20
2018-09-23T07:46:15.307Z,47.50
2018-09-23T07:47:20.001Z,47.60
2018-09-23T07:48:24.524Z,47.80
2018-09-23T07:49:29.059Z,47.90
2018-09-23T07:50:33.509Z,48.00
2018-09-23T07:51:38.080Z,48.10
2018-09-23T07:52:42.595Z,48.10
2018-09-23T07:53:47.086Z,48.20
2018-09-23T07:54:51.686Z,48.20
2018-09-23T07:55:56.202Z,48.30
2018-09-23T07:57:00.689Z,48.70
2018-09-23T07:58:05.188Z,48.80
2018-09-23T07:59:09.642Z,49.20
2018-09-23T08:00:14.390Z,49.10
2018-09-23T08:01:19.192Z,48.90
2018-09-23T08:02:23.819Z,48.60
2018-09-23T08:03:28.246Z,48.70
2018-09-23T08:04:32.938Z,48.70
2018-09-23T08:05:37.530Z,48.50
2018-09-23T08:06:41.973Z,48.60
2018-09-23T08:07:46.590Z,48.50
2018-09-23T08:08:54.040Z,48.60
2018-09-23T08:09:58.796Z,48.80
2018-09-23T08:11:03.871Z,48.50
2018-09-23T08:12:08.344Z,49.00
2018-09-23T08:13:13.013Z,48.90
2018-09-23T08:14:17.704Z,49.00
2018-09-23T08:15:22.047Z,49.60
2018-09-23T08:16:26.569Z,48.90
2018-09-23T08:17:30.895Z,49.00
2018-09-23T08:18:35.589Z,49.20
2018-09-23T08:19:40.158Z,49.00
2018-09-23T08:20:44.560Z,50.00
2018-09-23T08:21:49.641Z,50.50
2018-09-23T08:22:54.317Z,50.50
2018-09-23T08:23:58.994Z,50.40
2018-09-23T08:25:03.686Z,50.50
2018-09-23T08:26:08.098Z,50.40
2018-09-23T08:27:12.585Z,49.60
2018-09-23T08:28:17.727Z,49.90
2018-09-23T08:29:22.298Z,50.20
2018-09-23T08:30:27.204Z,49.80
2018-09-23T08:31:31.539Z,49.50
2018-09-23T08:32:35.879Z,50.00
2018-09-23T08:33:40.364Z,49.40
2018-09-23T08:34:45.028Z,50.30
2018-09-23T08:35:49.566Z,49.90
2018-09-23T08:36:54.089Z,49.30
2018-09-23T08:37:58.637Z,49.70
2018-09-23T08:39:03.266Z,49.70
2018-09-23T08:40:07.971Z,49.30
2018-09-23T08:41:12.527Z,50.30
2018-09-23T08:42:17.135Z,50.70
2018-09-23T08:43:21.944Z,50.80
2018-09-23T08:44:26.661Z,50.80
2018-09-23T08:45:31.273Z,50.80
2018-09-23T08:46:35.916Z,51.00
2018-09-23T08:47:40.517Z,51.10
2018-09-23T08:48:45.143Z,51.10
2018-09-23T08:49:49.802Z,51.00
2018-09-23T08:50:54.224Z,50.90
2018-09-23T08:51:58.932Z,50.70
2018-09-23T08:53:03.480Z,50.70
2018-09-23T08:54:07.957Z,50.60
2018-09-23T08:55:12.462Z,50.60
2018-09-23T08:56:17.076Z,50.40
2018-09-23T08:57:21.692Z,50.60
2018-09-23T08:58:26.118Z,50.70
2018-09-23T08:59:30.438Z,51.40
2018-09-23T09:00:34.827Z,50.70
2018-09-23T09:01:39.257Z,50.70
2018-09-23T09:02:43.817Z,50.80
2018-09-23T09:03:48.297Z,50.80
2018-09-23T09:04:52.782Z,50.90
2018-09-23T09:05:57.240Z,51.00
2018-09-23T09:07:01.822Z,50.90
2018-09-23T09:08:06.357Z,51.10
2018-09-23T09:09:10.871Z,51.10
2018-09-23T09:10:15.345Z,51.00
2018-09-23T09:11:19.789Z,51.10
2018-09-23T09:12:24.146Z,51.80
2018-09-23T09:13:28.632Z,51.10
2018-09-23T09:14:33.198Z,51.20
2018-09-23T09:15:37.507Z,51.10
2018-09-23T09:16:41.871Z,51.10
2018-09-23T09:17:46.199Z,51.10
2018-09-23T09:18:51.189Z,51.30
2018-09-23T09:19:55.720Z,51.10
2018-09-23T09:21:00.086Z,51.10
2018-09-23T09:22:04.480Z,51.20
2018-09-23T09:23:08.993Z,51.10
2018-09-23T09:24:13.257Z,51.10
2018-09-23T09:25:17.756Z,51.10
2018-09-23T09:26:22.256Z,51.00
2018-09-23T09:27:26.749Z,51.00
2018-09-23T09:28:31.147Z,51.10
2018-09-23T09:29:35.692Z,51.10
2018-09-23T09:30:40.086Z,51.30
2018-09-23T09:31:44.513Z,51.80
2018-09-23T09:32:49.026Z,52.70
2018-09-23T09:33:53.725Z,52.60
2018-09-23T09:34:58.257Z,53.30
2018-09-23T09:36:03.022Z,53.60
2018-09-23T09:37:07.499Z,54.00
2018-09-23T09:38:11.986Z,53.90
2018-09-23T09:39:16.594Z,53.70
2018-09-23T09:40:21.021Z,53.50
2018-09-23T09:41:25.606Z,53.40
2018-09-23T09:42:30.035Z,53.20
2018-09-23T09:43:34.607Z,53.40
2018-09-23T09:44:38.943Z,54.80
2018-09-23T09:45:43.425Z,55.40
2018-09-23T09:46:47.935Z,55.70
2018-09-23T09:47:52.460Z,55.60
2018-09-23T09:48:56.971Z,55.40
2018-09-23T09:50:01.341Z,55.00
2018-09-23T09:51:05.846Z,54.90
2018-09-23T09:52:10.333Z,55.00
2018-09-23T09:53:14.712Z,54.80
2018-09-23T09:54:19.210Z,54.70
2018-09-23T09:55:23.788Z,54.50
2018-09-23T09:56:28.082Z,54.30
2018-09-23T09:57:32.588Z,54.80
2018-09-23T09:58:37.047Z,53.90
2018-09-23T09:59:41.344Z,53.70
2018-09-23T10:00:45.655Z,53.60
2018-09-23T10:01:50.123Z,53.50
2018-09-23T10:02:54.558Z,53.50
2018-09-23T10:03:58.986Z,53.30
2018-09-23T10:05:03.384Z,53.20
2018-09-23T10:06:07.646Z,53.10
2018-09-23T10:07:12.166Z,53.10
2018-09-23T10:08:16.510Z,53.00
2018-09-23T10:09:20.860Z,52.70
2018-09-23T10:10:25.359Z,52.50
2018-09-23T10:11:29.959Z,52.40
2018-09-23T10:12:34.397Z,52.30
2018-09-23T10:13:38.890Z,52.30
2018-09-23T10:14:43.285Z,52.30
2018-09-23T10:15:47.811Z,52.30
2018-09-23T10:16:52.291Z,52.30
2018-09-23T10:17:56.670Z,52.30
2018-09-23T10:19:01.110Z,52.90
2018-09-23T10:20:05.525Z,52.20
2018-09-23T10:21:09.880Z,52.10
2018-09-23T10:22:14.290Z,52.10
2018-09-23T10:23:18.837Z,52.10
2018-09-23T10:24:23.225Z,52.00
2018-09-23T10:25:27.624Z,52.00
2018-09-23T10:26:32.093Z,51.90
2018-09-23T10:27:36.395Z,51.90
2018-09-23T10:28:40.926Z,51.80
2018-09-23T10:29:45.228Z,51.80
2018-09-23T10:30:49.448Z,51.60
2018-09-23T10:31:53.987Z,51.60
2018-09-23T10:32:58.347Z,51.60
2018-09-23T10:34:03.389Z,51.60
2018-09-23T10:35:07.772Z,51.60
2018-09-23T10:36:12.385Z,51.60
2018-09-23T10:37:16.821Z,51.60
2018-09-23T10:38:21.293Z,51.60
2018-09-23T10:39:25.700Z,51.60
2018-09-23T10:40:30.188Z,51.50
2018-09-23T10:41:34.496Z,51.50
2018-09-23T10:42:44.447Z,51.50
2018-09-23T10:43:53.239Z,51.50
2018-09-23T10:44:57.585Z,51.40
2018-09-23T10:46:01.938Z,51.40
2018-09-23T10:47:06.363Z,51.30
2018-09-23T10:48:10.669Z,51.30
2018-09-23T10:49:15.112Z,51.20
2018-09-23T10:50:19.429Z,51.20
2018-09-23T10:51:23.736Z,51.20
2018-09-23T10:52:28.131Z,51.10
2018-09-23T10:53:33.412Z,51.10
2018-09-23T10:54:38.223Z,51.10
2018-09-23T10:55:42.584Z,51.00
2018-09-23T10:56:46.919Z,51.00
2018-09-23T10:57:51.303Z,50.90
2018-09-23T10:58:55.840Z,51.00
2018-09-23T11:00:00.149Z,50.90
2018-09-23T11:01:04.580Z,50.90
2018-09-23T11:02:09.075Z,50.90
2018-09-23T11:03:13.354Z,50.90
2018-09-23T11:04:17.866Z,50.80
2018-09-23T11:05:22.150Z,50.90
2018-09-23T11:06:26.505Z,50.70
2018-09-23T11:07:30.922Z,50.80
2018-09-23T11:08:35.951Z,50.70
2018-09-23T11:09:40.284Z,50.70
2018-09-23T11:10:44.674Z,50.70
2018-09-23T11:11:48.948Z,50.70
2018-09-23T11:12:53.207Z,50.60
2018-09-23T11:13:57.623Z,50.60
2018-09-23T11:15:02.155Z,50.70
2018-09-23T11:16:06.626Z,50.50
2018-09-23T11:17:10.999Z,50.50
2018-09-23T11:18:15.525Z,50.50
2018-09-23T11:19:19.850Z,50.40
2018-09-23T11:20:24.065Z,51.10
2018-09-23T11:21:28.444Z,50.60
2018-09-23T11:22:32.967Z,50.30
2018-09-23T11:23:37.406Z,50.30
2018-09-23T11:24:42.016Z,50.30
2018-09-23T11:25:46.477Z,50.30
2018-09-23T11:26:50.753Z,50.30
2018-09-23T11:27:55.192Z,50.30
2018-09-23T11:28:59.577Z,50.20
2018-09-23T11:30:04.077Z,50.20
2018-09-23T11:31:08.619Z,50.20
2018-09-23T11:32:12.962Z,50.10
2018-09-23T11:33:17.348Z,50.10
2018-09-23T11:34:21.795Z,50.10
2018-09-23T11:35:26.241Z,50.10
2018-09-23T11:36:30.604Z,50.00
2018-09-23T11:37:35.049Z,50.00
2018-09-23T11:38:39.547Z,50.00
2018-09-23T11:39:43.923Z,50.00
2018-09-23T11:40:48.216Z,50.00
2018-09-23T11:41:52.583Z,50.00
2018-09-23T11:42:57.000Z,49.90
2018-09-23T11:44:02.283Z,49.90
2018-09-23T11:45:06.766Z,49.90
2018-09-23T11:46:11.242Z,49.90
2018-09-23T11:47:15.584Z,49.90
2018-09-23T11:48:19.882Z,49.90
2018-09-23T11:49:24.329Z,49.80
2018-09-23T11:50:28.814Z,49.80
2018-09-23T11:51:33.333Z,49.80
2018-09-23T11:52:37.619Z,49.80
2018-09-23T11:53:42.153Z,49.80
2018-09-23T11:54:46.505Z,49.70
2018-09-23T11:55:50.973Z,49.70
2018-09-23T11:56:55.564Z,49.70
2018-09-23T11:58:00.065Z,49.70
2018-09-23T11:59:04.655Z,49.70
2018-09-23T12:00:09.383Z,49.70
2018-09-23T12:01:14.044Z,49.70
2018-09-23T12:02:19.135Z,49.70
2018-09-23T12:03:23.878Z,49.70
2018-09-23T12:04:28.664Z,49.70
2018-09-23T12:05:33.432Z,49.70
2018-09-23T12:06:37.994Z,49.60
2018-09-23T12:07:42.721Z,49.50
2018-09-23T12:08:47.110Z,49.60
2018-09-23T12:09:51.631Z,49.50
2018-09-23T12:10:56.300Z,49.60
2018-09-23T12:12:00.753Z,49.60
2018-09-23T12:13:05.231Z,49.60
2018-09-23T12:14:09.754Z,49.50
2018-09-23T12:15:14.267Z,49.50
2018-09-23T12:16:18.658Z,49.50
2018-09-23T12:17:23.180Z,49.50
2018-09-23T12:18:27.743Z,49.40
2018-09-23T12:19:32.332Z,49.40
2018-09-23T12:20:36.771Z,49.40
2018-09-23T12:21:41.132Z,49.50
2018-09-23T12:22:45.561Z,49.40
2018-09-23T12:23:50.013Z,49.40
2018-09-23T12:24:54.572Z,49.40
2018-09-23T12:25:59.021Z,49.40
2018-09-23T12:27:03.639Z,49.30
2018-09-23T12:28:08.111Z,49.30
2018-09-23T12:29:12.731Z,49.30
2018-09-23T12:30:17.287Z,49.30
2018-09-23T12:31:22.049Z,49.20
2018-09-23T12:32:26.661Z,49.50
2018-09-23T12:33:31.092Z,49.80
2018-09-23T12:34:35.684Z,50.10
2018-09-23T12:35:40.059Z,50.40
2018-09-23T12:36:44.624Z,50.60
2018-09-23T12:37:49.173Z,50.60
2018-09-23T12:38:53.766Z,50.90
2018-09-23T12:39:58.385Z,51.10
2018-09-23T12:41:02.626Z,51.10
2018-09-23T12:42:07.205Z,51.10
2018-09-23T12:43:11.653Z,51.20
2018-09-23T12:44:16.054Z,51.30
2018-09-23T12:45:20.607Z,51.30
2018-09-23T12:46:25.197Z,51.60
2018-09-23T12:47:29.738Z,52.00
2018-09-23T12:48:34.324Z,51.90
2018-09-23T12:49:38.709Z,51.90
2018-09-23T12:50:43.275Z,52.00
2018-09-23T12:51:47.798Z,51.80
2018-09-23T12:52:52.301Z,51.70
2018-09-23T12:53:56.715Z,51.80
2018-09-23T12:55:01.116Z,51.70
2018-09-23T12:56:05.523Z,51.50
2018-09-23T12:57:09.966Z,51.30
2018-09-23T12:58:14.462Z,51.50
2018-09-23T12:59:18.992Z,51.70
2018-09-23T13:00:23.402Z,51.80
2018-09-23T13:01:27.851Z,51.80
2018-09-23T13:02:32.541Z,51.90
2018-09-23T13:03:37.071Z,51.90
2018-09-23T13:04:41.609Z,51.90
2018-09-23T13:05:46.114Z,51.80
2018-09-23T13:06:50.612Z,51.70
2018-09-23T13:07:55.179Z,51.80
2018-09-23T13:08:59.696Z,51.80
2018-09-23T13:10:04.213Z,51.80
2018-09-23T13:11:08.536Z,51.80
2018-09-23T13:12:13.068Z,51.70
2018-09-23T13:13:17.523Z,51.60
2018-09-23T13:14:21.981Z,51.60
2018-09-23T13:15:26.593Z,51.60
2018-09-23T13:16:31.087Z,51.60
2018-09-23T13:17:35.567Z,51.50
2018-09-23T13:18:39.847Z,51.50
2018-09-23T13:19:44.222Z,51.50
2018-09-23T13:20:48.794Z,51.40
2018-09-23T13:21:53.182Z,51.40
2018-09-23T13:22:57.741Z,51.40
2018-09-23T13:24:02.134Z,51.40
2018-09-23T13:25:06.626Z,51.40
2018-09-23T13:26:11.168Z,51.30
2018-09-23T13:27:15.430Z,51.30
2018-09-23T13:28:20.003Z,51.20
2018-09-23T13:29:24.361Z,51.20
2018-09-23T13:30:28.850Z,51.20
2018-09-23T13:31:33.189Z,51.20
2018-09-23T13:32:37.761Z,51.10
2018-09-23T13:33:42.226Z,51.10
2018-09-23T13:34:46.627Z,51.10
2018-09-23T13:35:51.116Z,51.10
2018-09-23T13:36:55.719Z,51.10
2018-09-23T13:38:00.351Z,51.10
2018-09-23T13:39:04.928Z,51.00
2018-09-23T13:40:09.936Z,51.00
2018-09-23T13:41:14.449Z,51.00
2018-09-23T13:42:18.833Z,51.00
2018-09-23T13:43:23.279Z,51.00
2018-09-23T13:44:27.840Z,51.00
2018-09-23T13:45:32.113Z,51.00
2018-09-23T13:46:36.512Z,51.00
2018-09-23T13:47:40.942Z,51.00
2018-09-23T13:48:45.251Z,50.90
2018-09-23T13:49:49.698Z,50.70
2018-09-23T13:50:54.232Z,50.70